AirNav   Everest Fuels
 
 1374 users online  

7KY1 Nicholas County Hospital Heliport
Carlisle, Kentucky, USA

GOING TO CARLISLE?


FAA INFORMATION EFFECTIVE 19 MAY 2022

Location

FAA Identifier: 7KY1
Lat/Long: 38-18-58.0500N 084-03-36.3300W
38-18.967500N 084-03.605500W
38.3161250,-84.0600917
(estimated)
Elevation: 830 ft. / 253 m (estimated)
From city: 2 miles W of CARLISLE, KY
Time zone: UTC -4 (UTC -5 during Standard Time)
Zip code: 40311

Heliport Operations

Heliport use: Private use. Permission required prior to landing
Activation date: 06/2010
Control tower: no
ARTCC: INDIANAPOLIS CENTER
FSS: LOUISVILLE FLIGHT SERVICE STATION
Attendance: CONTINUOUS
Wind indicator: yes
Segmented circle: no

Heliport Communications

WX AWOS-3 at IOB (16 nm S): 120.675 (859-498-7001)
WX AWOS-3 at 27K (18 nm W): 119.975 (502-867-1564)

Nearby radio navigation aids

VOR radial/distance  VOR name  Freq  Var
FLMr154/23.2FALMOUTH VOR/DME117.0004W
HYKr043/28.6LEXINGTON VOR/DME112.6000E

 
NDB name  Hdg/Dist  Freq  Var  ID
MOUNT STERLING352/15.821006WIOB .. --- -...
SECO001/33.539303WXYC -..- -.-- -.-.

Heliport Services

Runway Information

Helipad H1

Dimensions: 40 x 40 ft. / 12 x 12 m
Surface: concrete
Latitude: 38-18.967500N
Longitude: 084-03.605500W
Elevation: 830.0 ft.
Traffic pattern: leftleft

Heliport Ownership and Management from official FAA records

Ownership: Privately-owned
Owner: NICHOLAS COUNTY HOSPITAL
2323 CONCRETE ROAD
CARLISLE, KY 40311-2054
Phone (859) 289-3725
Manager: ROSCOE HIGGINBOTHAM, NCH. CTY JDG E
125 E. MAIN STREET
CARLISLE, KY 40311-2054
Phone 859-289-3725

Additional Remarks

OWNER DESIRES ARPT NOT BE CHARTED.
FOR CD CTC LEXINGTON APCH AT 859-514-7890.

Instrument Procedures

There are no published instrument procedures at 7KY1.

Some nearby airports with instrument procedures:

0I8 - Cynthiana-Harrison County Airport (11 nm W)
KIOB - Mount Sterling/Montgomery County Airport (16 nm S)
27K - Georgetown-Scott County Regional Airport (18 nm W)
KFGX - Fleming-Mason Airport (20 nm NE)
KSYM - Morehead-Rowan County Clyde A Thomas Regional Airport (23 nm E)
 
Loc | Ops | Rwys | IFR | FBO | Links
Com | Nav | Svcs | Stats | Notes
Aerial photo
No photo
 
Sectional chart

 
Airport distance calculator
Flying to Nicholas County Hospital Heliport? Find the distance to fly.

From to 7KY1

Sunrise and sunset
Times for 27-May-2022
 Local
(UTC-4)
 Zulu
(UTC)
Morning civil twilight05:4709:47
Sunrise06:1810:18
Sunset20:4900:49
Evening civil twilight21:2001:20

Current date and time
Zulu (UTC)  27-May-2022 16:35:45
Local (UTC-4)  27-May-2022 12:35:45
 
METAR
KIOB 
16nm S 
271615Z AUTO 25009KT 10SM SCT020 SCT026 SCT031 18/13 A2985 RMK AO2 PWINO
K27K 
18nm W 
271615Z AUTO 23009KT 10SM 17/12 A2982 RMK AO1
KFGX 
20nm NE 
271615Z AUTO 26011G18KT 10SM SCT120 17/12 A2983 RMK AO2 T01700123
KSYM 
23nm E 
271615Z AUTO VRB06KT 10SM FEW019 SCT025 BKN038 18/15 A2983 RMK AO2
KK62 
28nm NW 
271615Z AUTO 22010KT 10SM SCT033 SCT041 BKN080 17/13 A2980 RMK AO2
KLEX 
31nm SW 
271554Z 21010KT 10SM -RA FEW020 BKN030 OVC040 17/13 A2983 RMK AO2 RAB51 SLP094 P0000 T01720133
TAF
KSYM 
23nm E 
271129Z 2712/2812 18005KT P6SM -SHRA FEW030 BKN050 TEMPO 2712/2713 3SM BR FM271500 23007KT P6SM VCSH BKN025 FM271800 24010KT P6SM VCTS BKN045CB FM280300 VRB05KT P6SM SCT015 FM280600 VRB04KT P6SM BKN010
NOTAMs
Click for the latest NOTAMs
NOTAMs are issued by the DoD/FAA and will open in a separate window not controlled by AirNav.

 

 
 

Would you like to see your business listed on this page?

 If your business provides an interesting product or service to pilots, flight crews, aircraft, or users of the Nicholas County Hospital Heliport, you should consider listing it here.  To start the listing process, click on the button below
 
Add a business
 

Other Pages about Nicholas County Hospital Heliport

Update a link
 
Copyright © AirNav, LLC. All rights reserved. Privacy Policy  Contact